Portada
METAR-TAF:

METAR-TAF

Aeroports :

Aeroport Internacional de Xangai-Pudong

Xangai-Pudong, Xina

latitud: 31-07N, longitud: 121-46E, altitud: 4 m

Observació

L'informe es va fer fa 15 minuts, a les 13:30 UTC
Vent 10 kt del Est, variant entre Nord-Est i Est
Temperatura 19°C
Humitat 83%
Pressió 1014 hPa
Visibilitat 10 km o més
Cel ennuvolat a una alçada de 1500 ft

METAR: ZSPD 201330Z 08005MPS 040V100 9999 BKN015 19/16 Q1014 NOSIG

Hora: 21:45 (13:45 UTC)

Pronòstic

L'informe es va fer fa 4 hores i 19 minuts, a les 09:26 UTC
Pronòstic vàlid del 20 a les 12 UTC al 21 a les 12 UTC
Vent 12 kt del Est
Visibilitat: 6000 m
Cel ennuvolat a una alçada de 1100 ft

TAF: ZSPD 200926Z 2012/2112 08006MPS 6000 BKN011 TX23/2106Z TN18/2021Z

Observacions i pronòstics meteorològics de més de 4000 aeroports (METAR i TAF).

Les estacions disponibles són els punts grocs i vermells al mapa.

Posi el ratolí al punt desitjat per veure el nom de l'estació.

Feu clic per veure les observacions i els pronòstics meteorològics.

Per canviar el mapa: feu clic els botons verds amb una creu de color negre per apropar; al botó verd amb un guió per allunyar la imatge; o en les fletxes verdes per a mapes adjacents.


METAR-TAF: